Time;durP1;ratioP1;P1;durP2;ratioP2;P2;SDS_P1;SDS_P2;PMS_P1;PMS_P2;Temp;Humidity;BMP_temperature;BMP_pressure;BME280_temperature;BME280_humidity;BME280_pressure;Samples;Min_cycle;Max_cycle;Signal;HPM_P1;HPM_P2
2023/02/12 00:01:08;;;;;;;38.60;24.27;;;;;;;;;;5056937;28;20425;-72
2023/02/12 00:03:36;;;;;;;33.15;22.88;;;;;;;;;;5057107;28;20053;-73
2023/02/12 00:06:03;;;;;;;35.13;23.17;;;;;;;;;;5056780;28;20056;-73
2023/02/12 00:08:30;;;;;;;33.40;23.17;;;;;;;;;;5056634;28;20059;-73
2023/02/12 00:10:56;;;;;;;38.97;24.35;;;;;;;;;;5056604;28;20088;-72
2023/02/12 00:13:23;;;;;;;37.20;24.13;;;;;;;;;;5058555;28;20068;-73
2023/02/12 00:15:51;;;;;;;37.08;25.13;;;;;;;;;;5057138;28;20062;-74
2023/02/12 00:18:17;;;;;;;37.95;25.48;;;;;;;;;;5056962;28;20057;-73
2023/02/12 00:20:44;;;;;;;38.28;24.85;;;;;;;;;;5056743;28;20127;-74
2023/02/12 00:23:11;;;;;;;36.70;23.60;;;;;;;;;;5056902;28;20123;-74
2023/02/12 00:25:40;;;;;;;32.55;23.52;;;;;;;;;;5056721;28;20061;-73
2023/02/12 00:28:07;;;;;;;38.50;22.65;;;;;;;;;;5056452;28;20055;-74
2023/02/12 00:30:34;;;;;;;35.13;22.42;;;;;;;;;;5040094;28;20082;-73
2023/02/12 00:33:01;;;;;;;34.50;23.77;;;;;;;;;;5056464;28;20049;-73
2023/02/12 00:35:28;;;;;;;37.75;24.52;;;;;;;;;;5056513;28;20049;-73
2023/02/12 00:37:55;;;;;;;35.75;23.08;;;;;;;;;;5056294;28;20098;-73
2023/02/12 00:40:21;;;;;;;38.25;22.95;;;;;;;;;;5056396;28;20059;-73
2023/02/12 00:42:48;;;;;;;33.70;21.27;;;;;;;;;;5040026;28;20121;-74
2023/02/12 00:45:15;;;;;;;33.80;21.80;;;;;;;;;;5056485;28;20067;-74
2023/02/12 00:47:42;;;;;;;30.20;21.98;;;;;;;;;;5039783;28;20057;-74
2023/02/12 00:50:09;;;;;;;36.10;22.40;;;;;;;;;;5056519;28;20147;-74
2023/02/12 00:52:36;;;;;;;35.97;23.40;;;;;;;;;;5052968;28;20136;-74
2023/02/12 00:55:03;;;;;;;35.85;22.70;;;;;;;;;;5053162;28;20474;-74
2023/02/12 00:57:32;;;;;;;34.50;22.20;;;;;;;;;;5052895;28;20138;-74
2023/02/12 00:59:58;;;;;;;34.78;23.15;;;;;;;;;;5053048;28;20139;-74
2023/02/12 01:02:25;;;;;;;36.05;22.98;;;;;;;;;;5053142;28;20098;-73
2023/02/12 01:04:52;;;;;;;34.67;23.70;;;;;;;;;;5036746;28;20362;-73
2023/02/12 01:07:19;;;;;;;30.55;21.88;;;;;;;;;;5052762;28;20057;-74
2023/02/12 01:09:46;;;;;;;32.72;22.15;;;;;;;;;;5053128;28;20136;-73
2023/02/12 01:12:12;;;;;;;33.38;22.27;;;;;;;;;;5036321;28;20417;-74
2023/02/12 01:14:39;;;;;;;33.47;21.42;;;;;;;;;;5052774;28;20077;-73
2023/02/12 01:17:08;;;;;;;35.30;22.90;;;;;;;;;;5052626;28;20509;-73
2023/02/12 01:19:35;;;;;;;34.42;21.48;;;;;;;;;;5052735;28;20059;-74
2023/02/12 01:22:01;;;;;;;33.67;20.85;;;;;;;;;;5052585;28;20049;-73
2023/02/12 01:24:28;;;;;;;30.65;21.63;;;;;;;;;;5052730;28;20063;-74
2023/02/12 01:26:55;;;;;;;31.65;20.67;;;;;;;;;;5052482;28;20096;-73
2023/02/12 01:29:22;;;;;;;32.38;21.30;;;;;;;;;;5052528;28;20057;-74
2023/02/12 01:31:48;;;;;;;36.38;22.48;;;;;;;;;;5052303;28;20053;-73
2023/02/12 01:34:15;;;;;;;30.98;21.20;;;;;;;;;;5053484;28;20102;-73
2023/02/12 01:36:42;;;;;;;35.60;22.40;;;;;;;;;;5053555;28;20103;-73
2023/02/12 01:39:10;;;;;;;30.40;21.63;;;;;;;;;;5052189;28;20052;-74
2023/02/12 01:41:41;;;;;;;31.92;21.55;;;;;;;;;;5019055;28;20052;-73
2023/02/12 01:44:22;;;;;;;32.10;22.50;;;;;;;;;;5035763;28;20144;-74
2023/02/12 01:46:59;;;;;;;33.63;21.80;;;;;;;;;;5052119;28;20059;-73
2023/02/12 01:49:39;;;;;;;33.55;21.42;;;;;;;;;;5036994;28;20049;-73
2023/02/12 01:52:05;;;;;;;32.40;22.05;;;;;;;;;;5052242;28;20048;-73
2023/02/12 01:54:33;;;;;;;34.35;22.08;;;;;;;;;;5052102;28;20140;-74
2023/02/12 01:57:01;;;;;;;30.38;20.95;;;;;;;;;;5051895;28;20052;-73
2023/02/12 01:59:28;;;;;;;32.78;22.45;;;;;;;;;;5051775;28;20481;-73
2023/02/12 02:01:55;;;;;;;34.45;22.95;;;;;;;;;;5052207;28;20139;-74
2023/02/12 02:04:24;;;;;;;31.83;21.95;;;;;;;;;;5050663;28;20397;-73
2023/02/12 02:07:00;;;;;;;32.13;21.15;;;;;;;;;;5051622;28;20143;-72
2023/02/12 02:09:28;;;;;;;34.28;21.98;;;;;;;;;;5035383;28;20467;-74
2023/02/12 02:14:40;;;;;;;31.85;21.23;;;;;;;;;;5051968;28;20057;-74
2023/02/12 02:17:45;;;;;;;34.00;22.05;;;;;;;;;;5052010;28;20140;-74
2023/02/12 02:20:14;;;;;;;36.20;22.08;;;;;;;;;;5053330;28;20060;-74
2023/02/12 02:22:45;;;;;;;34.35;22.15;;;;;;;;;;5051772;28;20057;-73
2023/02/12 02:25:12;;;;;;;31.95;22.75;;;;;;;;;;5051653;28;20052;-74
2023/02/12 02:27:38;;;;;;;32.85;21.88;;;;;;;;;;5051414;28;20059;-73
2023/02/12 02:30:28;;;;;;;33.30;22.50;;;;;;;;;;5051366;28;20049;-74
2023/02/12 02:33:27;;;;;;;32.17;21.45;;;;;;;;;;5034911;28;20053;-74
2023/02/12 02:36:04;;;;;;;36.28;22.90;;;;;;;;;;5049334;28;20056;-74
2023/02/12 02:38:50;;;;;;;32.00;21.20;;;;;;;;;;5051106;28;20075;-74
2023/02/12 02:41:37;;;;;;;34.20;22.20;;;;;;;;;;5051165;28;20053;-74
2023/02/12 02:44:09;;;;;;;29.35;20.90;;;;;;;;;;5051739;28;20515;-74
2023/02/12 02:46:41;;;;;;;35.70;23.15;;;;;;;;;;5051476;28;20075;-74
2023/02/12 02:49:12;;;;;;;33.78;21.42;;;;;;;;;;5051350;28;20452;-74
2023/02/12 02:51:41;;;;;;;33.95;22.20;;;;;;;;;;5051064;28;20057;-74
2023/02/12 02:54:18;;;;;;;33.30;21.80;;;;;;;;;;5018473;28;21676;-74
2023/02/12 02:56:47;;;;;;;33.58;22.02;;;;;;;;;;5034998;28;20052;-74
2023/02/12 02:59:20;;;;;;;34.10;22.73;;;;;;;;;;5050722;28;20516;-74
2023/02/12 03:01:50;;;;;;;;;;;;;;;;;;5051268;28;20064;-74
2023/02/12 03:04:20;;;;;;;33.20;23.45;;;;;;;;;;5050720;28;20369;-74
2023/02/12 03:06:50;;;;;;;35.08;20.80;;;;;;;;;;5051053;28;20052;-74
2023/02/12 03:09:23;;;;;;;32.30;21.60;;;;;;;;;;5050805;28;20059;-74
2023/02/12 03:11:49;;;;;;;34.80;22.88;;;;;;;;;;5050526;28;20057;-74
2023/02/12 03:14:25;;;;;;;32.65;21.58;;;;;;;;;;5033912;28;20056;-74
2023/02/12 03:16:59;;;;;;;31.83;22.17;;;;;;;;;;5050575;28;20072;-74
2023/02/12 03:19:32;;;;;;;34.55;22.15;;;;;;;;;;5050484;28;20103;-75
2023/02/12 03:22:13;;;;;;;32.50;22.73;;;;;;;;;;5050597;28;20512;-74
2023/02/12 03:24:53;;;;;;;29.48;21.00;;;;;;;;;;5050336;28;20048;-74
2023/02/12 03:27:28;;;;;;;33.05;22.48;;;;;;;;;;5050515;28;20417;-74
2023/02/12 03:29:57;;;;;;;30.70;22.48;;;;;;;;;;5034066;28;20114;-73
2023/02/12 03:32:40;;;;;;;30.67;20.80;;;;;;;;;;5117003;22;20139;-74
2023/02/12 03:35:23;;;;;;;35.05;21.42;;;;;;;;;;5033955;28;20140;-74
2023/02/12 03:38:06;;;;;;;34.90;21.00;;;;;;;;;;5034142;28;20055;-74
2023/02/12 03:40:47;;;;;;;34.25;22.33;;;;;;;;;;5035633;28;20064;-74
2023/02/12 03:43:22;;;;;;;32.80;21.38;;;;;;;;;;5033861;28;20057;-74
2023/02/12 03:46:03;;;;;;;30.23;20.85;;;;;;;;;;5034103;28;20053;-74
2023/02/12 03:48:35;;;;;;;30.67;20.33;;;;;;;;;;5035769;28;20477;-74
2023/02/12 03:51:22;;;;;;;30.98;21.20;;;;;;;;;;5017968;28;20393;-74
2023/02/12 03:53:49;;;;;;;34.45;22.92;;;;;;;;;;5033810;28;20045;-74
2023/02/12 03:56:39;;;;;;;32.55;21.70;;;;;;;;;;5033865;28;20148;-74
2023/02/12 03:59:06;;;;;;;34.53;21.20;;;;;;;;;;5036422;28;20139;-74
2023/02/12 04:01:33;;;;;;;31.52;22.27;;;;;;;;;;5018189;28;20132;-74
2023/02/12 04:04:05;;;;;;;36.92;23.08;;;;;;;;;;5017850;28;20536;-74
2023/02/12 04:06:32;;;;;;;33.50;21.70;;;;;;;;;;5033928;28;20076;-74
2023/02/12 04:09:07;;;;;;;33.42;23.05;;;;;;;;;;5033772;28;20140;-74
2023/02/12 04:11:53;;;;;;;32.17;22.00;;;;;;;;;;5017270;28;20135;-74
2023/02/12 04:14:49;;;;;;;30.15;22.05;;;;;;;;;;5033712;28;20064;-74
2023/02/12 04:17:24;;;;;;;32.47;21.52;;;;;;;;;;5033611;28;20533;-74
2023/02/12 04:20:09;;;;;;;34.13;22.52;;;;;;;;;;5034186;28;20076;-74
2023/02/12 04:22:57;;;;;;;33.53;21.30;;;;;;;;;;5035706;28;20108;-74
2023/02/12 04:25:49;;;;;;;32.95;21.77;;;;;;;;;;5049885;28;20059;-74
2023/02/12 04:28:16;;;;;;;30.70;21.50;;;;;;;;;;5052849;28;20049;-74
2023/02/12 04:30:54;;;;;;;36.00;22.40;;;;;;;;;;5053868;28;20052;-74
2023/02/12 04:33:22;;;;;;;33.67;21.70;;;;;;;;;;5037158;28;20052;-74
2023/02/12 04:35:53;;;;;;;32.00;22.45;;;;;;;;;;5020913;28;20410;-74
2023/02/12 04:38:20;;;;;;;34.55;23.05;;;;;;;;;;5037349;28;20456;-74
2023/02/12 04:40:47;;;;;;;32.53;22.73;;;;;;;;;;5053521;28;20486;-75
2023/02/12 04:43:14;;;;;;;28.92;21.90;;;;;;;;;;5054673;28;20474;-74
2023/02/12 04:45:41;;;;;;;32.80;22.85;;;;;;;;;;5020675;28;20049;-74
2023/02/12 04:48:07;;;;;;;34.58;21.63;;;;;;;;;;5053150;28;20049;-73
2023/02/12 04:50:42;;;;;;;35.53;23.35;;;;;;;;;;5020602;28;20507;-73
2023/02/12 04:53:09;;;;;;;35.15;24.20;;;;;;;;;;5037108;28;20049;-74
2023/02/12 04:55:36;;;;;;;32.35;22.83;;;;;;;;;;5020395;28;20131;-73
2023/02/12 04:58:03;;;;;;;33.92;22.75;;;;;;;;;;5036707;28;20459;-74
2023/02/12 05:00:30;;;;;;;32.10;22.50;;;;;;;;;;5020407;28;20049;-74
2023/02/12 05:02:57;;;;;;;33.92;22.33;;;;;;;;;;5020452;28;20045;-74
2023/02/12 05:05:23;;;;;;;34.38;24.42;;;;;;;;;;5020545;28;20056;-74
2023/02/12 05:07:50;;;;;;;33.83;22.77;;;;;;;;;;5052973;28;20048;-73
2023/02/12 05:10:17;;;;;;;32.42;22.40;;;;;;;;;;5053028;28;20063;-73
2023/02/12 05:12:44;;;;;;;32.22;22.27;;;;;;;;;;5036581;28;20135;-73
2023/02/12 05:15:11;;;;;;;34.33;22.17;;;;;;;;;;5036535;28;20418;-74
2023/02/12 05:17:38;;;;;;;35.33;24.42;;;;;;;;;;5053121;28;20057;-73
2023/02/12 05:20:05;;;;;;;38.42;25.13;;;;;;;;;;5056043;28;20057;-73
2023/02/12 05:22:32;;;;;;;35.13;23.63;;;;;;;;;;5063737;28;20109;-74
2023/02/12 05:24:59;;;;;;;38.35;24.48;;;;;;;;;;5031480;28;20067;-73
2023/02/12 05:27:26;;;;;;;36.30;24.20;;;;;;;;;;5047031;28;20127;-74
2023/02/12 05:29:52;;;;;;;36.95;23.95;;;;;;;;;;5030516;28;20109;-74
2023/02/12 05:32:19;;;;;;;34.28;23.13;;;;;;;;;;5042892;28;20049;-73
2023/02/12 05:34:46;;;;;;;35.70;23.90;;;;;;;;;;5025416;28;20131;-73
2023/02/12 05:37:13;;;;;;;35.40;23.45;;;;;;;;;;5038328;28;20500;-73
2023/02/12 05:39:40;;;;;;;35.58;23.42;;;;;;;;;;5039242;28;20049;-74
2023/02/12 05:42:07;;;;;;;34.42;23.65;;;;;;;;;;5056757;28;20067;-74
2023/02/12 05:44:34;;;;;;;33.53;23.33;;;;;;;;;;5054178;28;20045;-74
2023/02/12 05:47:00;;;;;;;37.47;24.42;;;;;;;;;;5019906;28;20045;-74
2023/02/12 05:49:27;;;;;;;37.05;24.35;;;;;;;;;;5036308;28;20424;-74
2023/02/12 05:51:54;;;;;;;35.13;23.98;;;;;;;;;;5019486;28;20083;-74
2023/02/12 05:54:20;;;;;;;37.45;23.58;;;;;;;;;;5019362;28;20045;-74
2023/02/12 05:56:47;;;;;;;32.65;22.85;;;;;;;;;;5035658;28;20048;-73
2023/02/12 05:59:17;;;;;;;33.45;23.15;;;;;;;;;;5051949;28;20056;-73
2023/02/12 06:01:45;;;;;;;34.03;23.50;;;;;;;;;;5019819;28;20048;-73
2023/02/12 06:04:22;;;;;;;37.92;23.67;;;;;;;;;;5019664;28;20152;-74
2023/02/12 06:06:54;;;;;;;34.50;22.65;;;;;;;;;;5035703;28;20052;-73
2023/02/12 06:09:22;;;;;;;37.13;24.23;;;;;;;;;;5036030;28;20055;-74
2023/02/12 06:11:49;;;;;;;32.42;23.10;;;;;;;;;;5019337;28;20045;-74
2023/02/12 06:14:17;;;;;;;36.90;22.63;;;;;;;;;;5035593;28;20060;-74
2023/02/12 06:16:47;;;;;;;32.25;22.60;;;;;;;;;;5051854;28;20051;-73
2023/02/12 06:19:14;;;;;;;38.13;24.10;;;;;;;;;;5035242;28;20497;-74
2023/02/12 06:21:41;;;;;;;36.17;23.15;;;;;;;;;;5035272;28;20052;-74
2023/02/12 06:24:10;;;;;;;36.60;23.38;;;;;;;;;;5035217;28;20045;-73
2023/02/12 06:26:36;;;;;;;33.83;23.50;;;;;;;;;;5019241;28;20420;-74
2023/02/12 06:29:03;;;;;;;34.22;24.05;;;;;;;;;;5051596;28;20059;-73
2023/02/12 06:31:32;;;;;;;32.85;23.05;;;;;;;;;;5018575;28;20535;-74
2023/02/12 06:34:04;;;;;;;33.47;22.92;;;;;;;;;;5018754;28;20413;-73
2023/02/12 06:36:31;;;;;;;30.10;22.10;;;;;;;;;;5035027;28;20053;-74
2023/02/12 06:39:01;;;;;;;34.90;22.80;;;;;;;;;;5034571;28;20053;-74
2023/02/12 06:41:28;;;;;;;32.08;21.95;;;;;;;;;;5034512;28;20151;-74
2023/02/12 06:43:55;;;;;;;33.83;22.42;;;;;;;;;;5018612;28;20124;-74
2023/02/12 06:46:22;;;;;;;39.30;22.92;;;;;;;;;;5018617;28;20049;-76
2023/02/12 06:48:52;;;;;;;32.28;22.27;;;;;;;;;;5018092;28;20107;-74
2023/02/12 06:51:22;;;;;;;34.63;22.25;;;;;;;;;;5017962;28;20068;-74
2023/02/12 06:53:50;;;;;;;32.22;22.88;;;;;;;;;;5034937;28;20134;-73
2023/02/12 06:56:17;;;;;;;30.58;22.70;;;;;;;;;;5018515;28;20056;-74
2023/02/12 06:58:45;;;;;;;35.67;22.98;;;;;;;;;;5018176;28;20064;-74
2023/02/12 07:01:13;;;;;;;32.67;21.85;;;;;;;;;;5018308;28;20059;-73
2023/02/12 07:03:41;;;;;;;31.13;22.35;;;;;;;;;;5034579;28;20049;-74
2023/02/12 07:06:08;;;;;;;29.13;21.15;;;;;;;;;;5018270;28;20073;-74
2023/02/12 07:08:35;;;;;;;36.92;23.00;;;;;;;;;;5017964;28;20053;-73
2023/02/12 07:11:04;;;;;;;32.42;22.30;;;;;;;;;;5034220;28;20048;-73
2023/02/12 07:13:33;;;;;;;32.67;21.42;;;;;;;;;;5034354;28;20051;-73
2023/02/12 07:16:08;;;;;;;35.75;22.80;;;;;;;;;;5034586;28;20052;-73
2023/02/12 07:18:35;;;;;;;34.53;22.35;;;;;;;;;;5034098;28;20555;-73
2023/02/12 07:21:03;;;;;;;35.92;23.67;;;;;;;;;;5034351;28;20053;-73
2023/02/12 07:23:30;;;;;;;33.05;23.02;;;;;;;;;;5034130;28;20045;-73
2023/02/12 07:26:03;;;;;;;33.72;22.48;;;;;;;;;;5018295;28;20049;-74
2023/02/12 07:28:32;;;;;;;;;;;;;;;;;;5018414;28;20519;-74
2023/02/12 07:31:07;;;;;;;36.30;23.33;;;;;;;;;;5034737;28;20355;-74
2023/02/12 07:33:34;;;;;;;35.10;23.30;;;;;;;;;;5018820;28;20049;-74
2023/02/12 07:36:02;;;;;;;36.95;24.23;;;;;;;;;;5017937;28;20049;-74
2023/02/12 07:38:29;;;;;;;35.20;25.10;;;;;;;;;;5017956;28;20091;-73
2023/02/12 07:41:09;;;;;;;35.13;24.27;;;;;;;;;;5016972;28;20127;-73
2023/02/12 07:43:36;;;;;;;35.22;24.70;;;;;;;;;;5018320;28;20049;-73
2023/02/12 07:46:08;;;;;;;36.75;24.35;;;;;;;;;;5017608;28;20489;-73
2023/02/12 07:48:35;;;;;;;34.85;23.80;;;;;;;;;;5017529;28;20049;-73
2023/02/12 07:51:06;;;;;;;33.58;22.77;;;;;;;;;;5033759;28;20098;-73
2023/02/12 07:53:33;;;;;;;33.75;23.58;;;;;;;;;;5033884;28;20049;-73
2023/02/12 07:56:05;;;;;;;32.47;22.65;;;;;;;;;;5017620;28;20049;-73
2023/02/12 07:58:32;;;;;;;34.83;23.67;;;;;;;;;;5033859;28;20072;-73
2023/02/12 08:00:58;;;;;;;33.60;22.38;;;;;;;;;;5034904;28;20048;-73
2023/02/12 08:03:27;;;;;;;34.45;22.63;;;;;;;;;;5021559;28;20457;-73
2023/02/12 08:05:54;;;;;;;31.27;22.52;;;;;;;;;;5037977;28;20122;-73
2023/02/12 08:08:21;;;;;;;31.55;21.85;;;;;;;;;;5054147;28;20049;-74
2023/02/12 08:10:48;;;;;;;36.08;23.95;;;;;;;;;;5038012;28;20417;-74
2023/02/12 08:13:15;;;;;;;40.03;25.20;;;;;;;;;;5037680;28;20075;-74
2023/02/12 08:15:41;;;;;;;32.78;23.05;;;;;;;;;;5021409;28;20469;-73
2023/02/12 08:18:08;;;;;;;31.30;23.00;;;;;;;;;;5037305;28;20055;-74
2023/02/12 08:20:35;;;;;;;35.75;23.48;;;;;;;;;;5021380;28;20053;-74
2023/02/12 08:23:02;;;;;;;33.60;23.23;;;;;;;;;;5037544;28;20045;-73
2023/02/12 08:25:28;;;;;;;35.63;23.90;;;;;;;;;;5037801;28;20052;-74
2023/02/12 08:27:55;;;;;;;36.03;24.13;;;;;;;;;;5021076;28;20064;-73
2023/02/12 08:30:22;;;;;;;35.45;22.98;;;;;;;;;;5037512;28;20053;-74
2023/02/12 08:32:49;;;;;;;36.95;23.80;;;;;;;;;;5020997;28;20049;-74
2023/02/12 08:35:15;;;;;;;32.28;22.30;;;;;;;;;;5020710;28;20049;-74
2023/02/12 08:37:42;;;;;;;32.58;23.13;;;;;;;;;;5020745;28;20049;-73
2023/02/12 08:40:12;;;;;;;36.58;24.98;;;;;;;;;;5053757;28;20044;-74
2023/02/12 08:42:38;;;;;;;36.17;23.23;;;;;;;;;;5037051;28;20059;-73
2023/02/12 08:45:05;;;;;;;34.35;23.35;;;;;;;;;;5020958;28;20053;-74
2023/02/12 08:47:32;;;;;;;34.10;23.80;;;;;;;;;;5036942;28;20059;-73
2023/02/12 08:49:59;;;;;;;34.63;23.92;;;;;;;;;;5037250;28;20413;-74
2023/02/12 08:52:26;;;;;;;34.35;23.02;;;;;;;;;;5037109;28;20052;-74
2023/02/12 08:54:52;;;;;;;38.08;24.67;;;;;;;;;;5020470;28;20128;-74
2023/02/12 08:57:19;;;;;;;38.22;25.58;;;;;;;;;;5036909;28;20048;-74
2023/02/12 08:59:47;;;;;;;39.28;25.60;;;;;;;;;;5020409;28;20531;-74
2023/02/12 09:02:14;;;;;;;39.00;25.45;;;;;;;;;;5020464;28;20420;-74
2023/02/12 09:04:41;;;;;;;43.95;26.90;;;;;;;;;;5020235;28;20084;-74
2023/02/12 09:07:08;;;;;;;39.10;26.35;;;;;;;;;;5020479;28;20438;-74
2023/02/12 09:09:36;;;;;;;36.55;26.30;;;;;;;;;;5020712;28;20089;-74
2023/02/12 09:12:03;;;;;;;42.28;26.73;;;;;;;;;;5020159;28;20155;-74
2023/02/12 09:14:30;;;;;;;44.05;27.88;;;;;;;;;;5036123;28;20703;-75
2023/02/12 09:16:57;;;;;;;39.42;25.92;;;;;;;;;;5052821;28;20053;-74
2023/02/12 09:19:24;;;;;;;44.78;27.15;;;;;;;;;;5036238;28;20575;-74
2023/02/12 09:21:52;;;;;;;37.95;25.67;;;;;;;;;;5036520;28;20045;-74
2023/02/12 09:24:22;;;;;;;41.88;27.73;;;;;;;;;;5020829;28;20509;-74
2023/02/12 09:26:49;;;;;;;37.72;25.77;;;;;;;;;;5036436;28;20053;-74
2023/02/12 09:29:15;;;;;;;37.97;26.00;;;;;;;;;;5019858;28;20052;-74
2023/02/12 09:34:14;;;;;;;38.63;25.90;;;;;;;;;;5051880;28;20437;-73
2023/02/12 09:36:41;;;;;;;38.88;25.10;;;;;;;;;;5053213;28;20079;-73
2023/02/12 09:39:08;;;;;;;40.78;26.00;;;;;;;;;;5053703;28;20052;-73
2023/02/12 09:41:48;;;;;;;37.67;25.30;;;;;;;;;;5052543;28;20501;-73
2023/02/12 09:44:24;;;;;;;35.83;25.55;;;;;;;;;;5052565;28;20053;-73
2023/02/12 09:47:19;;;;;;;41.20;26.65;;;;;;;;;;5052484;28;20088;-72
2023/02/12 09:50:00;;;;;;;37.85;24.92;;;;;;;;;;5053479;28;20498;-73
2023/02/12 09:52:28;;;;;;;35.85;23.45;;;;;;;;;;5052349;28;20131;-73
2023/02/12 09:54:55;;;;;;;33.63;23.83;;;;;;;;;;5052320;28;20155;-73
2023/02/12 09:57:35;;;;;;;31.10;21.65;;;;;;;;;;5051962;28;20061;-73
2023/02/12 10:00:06;;;;;;;35.13;24.90;;;;;;;;;;5035634;28;20049;-73
2023/02/12 10:02:37;;;;;;;35.72;24.02;;;;;;;;;;5035373;28;20053;-73
2023/02/12 10:05:14;;;;;;;41.67;24.33;;;;;;;;;;5051996;28;20050;-73
2023/02/12 10:08:13;;;;;;;39.75;24.42;;;;;;;;;;5051900;28;20520;-73
2023/02/12 10:10:53;;;;;;;36.95;24.60;;;;;;;;;;5038323;28;20056;-73
2023/02/12 10:13:44;;;;;;;38.30;25.13;;;;;;;;;;5051945;28;20566;-73
2023/02/12 10:16:58;;;;;;;37.63;23.77;;;;;;;;;;5047013;28;20067;-73
2023/02/12 10:19:51;;;;;;;37.50;24.83;;;;;;;;;;5044080;28;20056;-74
2023/02/12 10:22:31;;;;;;;33.45;20.98;;;;;;;;;;5052604;28;20053;-74
2023/02/12 10:25:01;;;;;;;30.27;21.27;;;;;;;;;;5050687;28;20497;-74
2023/02/12 10:27:37;;;;;;;30.48;21.10;;;;;;;;;;5051604;28;20139;-73
2023/02/12 10:30:26;;;;;;;31.70;21.10;;;;;;;;;;5052509;28;20055;-74
2023/02/12 10:32:58;;;;;;;29.00;20.75;;;;;;;;;;5051915;28;20071;-74
2023/02/12 10:35:24;;;;;;;28.60;19.48;;;;;;;;;;5035105;28;20049;-74
2023/02/12 10:37:56;;;;;;;26.27;18.52;;;;;;;;;;5051348;28;20052;-74
2023/02/12 10:40:28;;;;;;;17.67;11.38;;;;;;;;;;5035176;28;20057;-74
2023/02/12 10:42:58;;;;;;;7.30;5.53;;;;;;;;;;5034653;28;20057;-74
2023/02/12 10:45:28;;;;;;;4.68;2.92;;;;;;;;;;5051195;28;20053;-74
2023/02/12 10:48:17;;;;;;;3.70;2.90;;;;;;;;;;5035017;28;20156;-74
2023/02/12 10:51:02;;;;;;;5.43;3.47;;;;;;;;;;5051143;28;20065;-74
2023/02/12 10:53:37;;;;;;;3.72;2.55;;;;;;;;;;5034772;28;20140;-74
2023/02/12 10:56:10;;;;;;;6.10;4.03;;;;;;;;;;5051053;28;20048;-74
2023/02/12 10:58:49;;;;;;;4.85;3.50;;;;;;;;;;5050707;28;20493;-74
2023/02/12 11:01:19;;;;;;;4.53;3.00;;;;;;;;;;5051159;28;20057;-74
2023/02/12 11:03:46;;;;;;;6.07;4.35;;;;;;;;;;5034521;28;20500;-74
2023/02/12 11:06:27;;;;;;;6.25;4.63;;;;;;;;;;5051143;28;20059;-74
2023/02/12 11:08:55;;;;;;;6.28;4.40;;;;;;;;;;5034283;28;20539;-74
2023/02/12 11:11:36;;;;;;;7.65;5.32;;;;;;;;;;5050663;28;20053;-74
2023/02/12 11:14:15;;;;;;;7.50;4.57;;;;;;;;;;5034455;28;20128;-74
2023/02/12 11:17:02;;;;;;;6.45;4.50;;;;;;;;;;5050912;28;20063;-73
2023/02/12 11:19:30;;;;;;;5.60;4.63;;;;;;;;;;5050649;28;20071;-74
2023/02/12 11:22:17;;;;;;;7.10;5.05;;;;;;;;;;5050779;28;20048;-74
2023/02/12 11:24:45;;;;;;;5.72;3.85;;;;;;;;;;5050647;28;20095;-74
2023/02/12 11:27:23;;;;;;;6.72;4.93;;;;;;;;;;5050512;28;20056;-74
2023/02/12 11:30:09;;;;;;;6.45;4.20;;;;;;;;;;5034782;28;20061;-73
2023/02/12 11:32:36;;;;;;;8.25;4.85;;;;;;;;;;5050701;28;20048;-74
2023/02/12 11:35:27;;;;;;;6.28;4.50;;;;;;;;;;5034286;28;20405;-74
2023/02/12 11:37:56;;;;;;;8.73;5.32;;;;;;;;;;5035703;28;20078;-74
2023/02/12 11:40:27;;;;;;;8.07;5.80;;;;;;;;;;5050466;28;20053;-74
2023/02/12 11:42:59;;;;;;;6.10;4.68;;;;;;;;;;5033365;28;20139;-74
2023/02/12 11:45:50;;;;;;;7.23;4.70;;;;;;;;;;5050604;28;20390;-74
2023/02/12 11:48:37;;;;;;;6.25;4.70;;;;;;;;;;5050097;28;20280;-74
2023/02/12 11:51:08;;;;;;;8.05;5.43;;;;;;;;;;5050301;28;20080;-74
2023/02/12 11:53:39;;;;;;;6.05;4.63;;;;;;;;;;5050375;28;20052;-74
2023/02/12 11:56:11;;;;;;;8.88;5.65;;;;;;;;;;5018125;28;20064;-74
2023/02/12 11:58:38;;;;;;;7.32;5.18;;;;;;;;;;5050177;28;20052;-73
2023/02/12 12:01:33;;;;;;;7.70;5.60;;;;;;;;;;5034120;28;20516;-74
2023/02/12 12:04:14;;;;;;;9.23;5.88;;;;;;;;;;5036652;28;20057;-74
2023/02/12 12:06:47;;;;;;;7.53;5.13;;;;;;;;;;5050353;28;20505;-73
2023/02/12 12:09:40;;;;;;;7.55;5.00;;;;;;;;;;5049954;28;20138;-74
2023/02/12 12:12:42;;;;;;;7.28;4.57;;;;;;;;;;5037004;28;20053;-74
2023/02/12 12:21:19;;;;;;;9.23;5.63;;;;;;;;;;5051595;28;20057;-74
2023/02/12 12:23:51;;;;;;;6.43;4.47;;;;;;;;;;5018866;28;20053;-74
2023/02/12 12:26:20;;;;;;;6.57;3.90;;;;;;;;;;5050063;28;20049;-74
2023/02/12 12:28:54;;;;;;;5.53;4.22;;;;;;;;;;5049747;28;20056;-74
2023/02/12 12:31:38;;;;;;;5.18;4.20;;;;;;;;;;5034149;28;20155;-74
2023/02/12 12:34:13;;;;;;;5.70;4.20;;;;;;;;;;5049828;28;20055;-74
2023/02/12 12:36:58;;;;;;;6.72;4.57;;;;;;;;;;5034014;28;20059;-74
2023/02/12 12:39:35;;;;;;;5.43;3.90;;;;;;;;;;5051186;28;20048;-74
2023/02/12 12:42:33;;;;;;;5.10;3.50;;;;;;;;;;5049307;28;20059;-74
2023/02/12 12:45:24;;;;;;;7.20;4.57;;;;;;;;;;5033842;28;20102;-74
2023/02/12 12:48:16;;;;;;;5.00;3.55;;;;;;;;;;5050538;28;20095;-74
2023/02/12 12:50:48;;;;;;;5.18;3.47;;;;;;;;;;5053434;28;20067;-74
2023/02/12 12:53:30;;;;;;;5.05;3.60;;;;;;;;;;5053556;28;20500;-74
2023/02/12 12:56:21;;;;;;;5.55;3.38;;;;;;;;;;5053755;28;20064;-74
2023/02/12 12:59:09;;;;;;;5.07;3.80;;;;;;;;;;5053074;28;20556;-74
2023/02/12 13:01:54;;;;;;;4.78;3.47;;;;;;;;;;5053386;28;20151;-74
2023/02/12 13:04:24;;;;;;;5.57;4.00;;;;;;;;;;5053495;28;20063;-74
2023/02/12 13:07:18;;;;;;;4.80;3.70;;;;;;;;;;5053062;28;20139;-74
2023/02/12 13:09:53;;;;;;;5.90;3.72;;;;;;;;;;5053358;28;20053;-74
2023/02/12 13:12:42;;;;;;;4.63;3.63;;;;;;;;;;5053143;28;20080;-74
2023/02/12 13:15:53;;;;;;;7.43;5.22;;;;;;;;;;5052996;28;20053;-74
2023/02/12 13:18:41;;;;;;;6.40;3.78;;;;;;;;;;4995727;28;20493;-74
2023/02/12 13:21:11;;;;;;;5.15;3.50;;;;;;;;;;5012089;28;20169;-74
2023/02/12 13:23:58;;;;;;;5.20;3.85;;;;;;;;;;5031361;28;20060;-74
2023/02/12 13:26:43;;;;;;;5.43;4.00;;;;;;;;;;5053364;28;20440;-74
2023/02/12 13:29:20;;;;;;;5.35;3.60;;;;;;;;;;5052334;28;20532;-73
2023/02/12 13:31:54;;;;;;;6.10;4.20;;;;;;;;;;5052915;28;20060;-74
2023/02/12 13:34:20;;;;;;;6.35;4.03;;;;;;;;;;5052750;28;20088;-73
2023/02/12 13:36:47;;;;;;;5.95;3.88;;;;;;;;;;5053048;28;20410;-74
2023/02/12 13:39:35;;;;;;;5.45;3.67;;;;;;;;;;5052408;28;20080;-74
2023/02/12 13:42:31;;;;;;;6.00;3.80;;;;;;;;;;5035770;28;20057;-74
2023/02/12 13:45:06;;;;;;;5.43;4.30;;;;;;;;;;5052524;28;20497;-74
2023/02/12 13:48:04;;;;;;;7.40;3.90;;;;;;;;;;5035687;28;20140;-74
2023/02/12 13:50:41;;;;;;;6.10;3.92;;;;;;;;;;5052531;28;20110;-74
2023/02/12 13:53:17;;;;;;;4.28;3.17;;;;;;;;;;5036010;28;20425;-74
2023/02/12 13:55:56;;;;;;;4.75;3.60;;;;;;;;;;5035759;28;20055;-74
2023/02/12 13:58:33;;;;;;;5.93;3.75;;;;;;;;;;5051804;28;20049;-74
2023/02/12 14:01:09;;;;;;;5.38;3.72;;;;;;;;;;5052089;28;20140;-74
2023/02/12 14:03:37;;;;;;;5.30;3.30;;;;;;;;;;5052250;28;20088;-74
2023/02/12 14:06:10;;;;;;;4.53;3.05;;;;;;;;;;5035626;28;20056;-74
2023/02/12 14:08:38;;;;;;;;;;;;;;;;;;5052174;28;20056;-74
2023/02/12 14:11:22;;;;;;;3.65;2.40;;;;;;;;;;5068393;28;19924;-74
2023/02/12 14:13:57;;;;;;;2.75;2.00;;;;;;;;;;5051996;28;20402;-74
2023/02/12 14:16:27;;;;;;;2.88;2.13;;;;;;;;;;5035722;28;20394;-74
2023/02/12 14:19:31;;;;;;;3.58;2.10;;;;;;;;;;5051470;28;20532;-74
2023/02/12 14:21:59;;;;;;;2.58;1.75;;;;;;;;;;5051677;28;20058;-74
2023/02/12 14:24:35;;;;;;;2.55;1.90;;;;;;;;;;5051944;28;20060;-74
2023/02/12 14:27:14;;;;;;;2.30;1.60;;;;;;;;;;5051428;28;20604;-74
2023/02/12 14:29:46;;;;;;;2.33;1.95;;;;;;;;;;5035056;28;20056;-74
2023/02/12 14:32:57;;;;;;;2.63;1.90;;;;;;;;;;5019526;28;20057;-74
2023/02/12 14:35:26;;;;;;;2.33;1.90;;;;;;;;;;5051575;28;20059;-74
2023/02/12 14:37:54;;;;;;;2.55;2.10;;;;;;;;;;5051407;28;20059;-74
2023/02/12 14:40:33;;;;;;;2.95;2.03;;;;;;;;;;5051431;28;20256;-74
2023/02/12 14:43:02;;;;;;;2.42;1.77;;;;;;;;;;5051129;28;20107;-74
2023/02/12 14:45:34;;;;;;;2.22;1.50;;;;;;;;;;5051404;28;20067;-73
2023/02/12 14:48:02;;;;;;;2.75;1.63;;;;;;;;;;5051040;28;20053;-74
2023/02/12 14:50:40;;;;;;;1.92;1.52;;;;;;;;;;5051237;28;20060;-74
2023/02/12 14:53:18;;;;;;;1.65;1.30;;;;;;;;;;5034977;28;20049;-73
2023/02/12 14:55:45;;;;;;;1.88;1.60;;;;;;;;;;5050875;28;20489;-74
2023/02/12 14:58:18;;;;;;;2.00;1.70;;;;;;;;;;5050735;28;20056;-74
2023/02/12 15:00:46;;;;;;;1.85;1.40;;;;;;;;;;5018537;28;20148;-74
2023/02/12 15:03:13;;;;;;;2.58;1.70;;;;;;;;;;5034529;28;20446;-74
2023/02/12 15:06:10;;;;;;;2.00;1.80;;;;;;;;;;5051077;28;20049;-74
2023/02/12 15:08:44;;;;;;;2.20;1.67;;;;;;;;;;5050714;28;20081;-74
2023/02/12 15:11:22;;;;;;;2.13;1.50;;;;;;;;;;5051297;28;20083;-73